createdAt,value
2023-04-17T00:00:52.286Z,101645.80
2023-04-17T00:02:25.716Z,101639.00
2023-04-17T00:03:58.014Z,101646.20
2023-04-17T00:05:31.730Z,101643.20
2023-04-17T00:07:03.677Z,101647.80
2023-04-17T00:08:35.437Z,101649.00
2023-04-17T00:10:11.620Z,101647.20
2023-04-17T00:11:43.261Z,101649.60
2023-04-17T00:13:15.009Z,101645.40
2023-04-17T00:14:46.615Z,101647.20
2023-04-17T00:16:18.289Z,101651.80
2023-04-17T00:17:50.058Z,101649.20
2023-04-17T00:19:21.954Z,101645.40
2023-04-17T00:20:53.693Z,101646.60
2023-04-17T00:22:25.552Z,101643.40
2023-04-17T00:23:57.323Z,101645.20
2023-04-17T00:25:29.055Z,101646.00
2023-04-17T00:27:01.344Z,101648.20
2023-04-17T00:28:33.347Z,101649.20
2023-04-17T00:30:06.653Z,101648.60
2023-04-17T00:31:38.408Z,101650.80
2023-04-17T00:33:10.111Z,101649.00
2023-04-17T00:34:41.756Z,101652.00
2023-04-17T00:36:15.332Z,101652.00
2023-04-17T00:37:48.567Z,101650.20
2023-04-17T00:39:20.596Z,101649.40
2023-04-17T00:40:52.376Z,101647.40
2023-04-17T00:42:24.212Z,101647.20
2023-04-17T00:43:55.898Z,101644.80
2023-04-17T00:45:30.474Z,101642.40
2023-04-17T00:47:02.964Z,101643.60
2023-04-17T00:48:37.348Z,101641.80
2023-04-17T00:50:10.158Z,101641.60
2023-04-17T00:51:41.974Z,101646.60
2023-04-17T00:53:14.357Z,101643.00
2023-04-17T00:54:46.443Z,101638.80
2023-04-17T00:56:18.309Z,101639.20
2023-04-17T00:57:50.768Z,101639.40
2023-04-17T00:59:23.618Z,101636.40
2023-04-17T01:00:55.752Z,101635.40
2023-04-17T01:02:28.757Z,101640.20
2023-04-17T01:04:01.903Z,101635.20
2023-04-17T01:05:35.501Z,101635.20
2023-04-17T01:07:07.467Z,101636.00
2023-04-17T01:08:44.037Z,101638.60
2023-04-17T01:10:15.887Z,101636.00
2023-04-17T01:11:47.535Z,101638.80
2023-04-17T01:13:19.205Z,101635.60
2023-04-17T01:14:53.429Z,101635.00
2023-04-17T01:16:25.175Z,101636.20
2023-04-17T01:17:57.341Z,101637.40
2023-04-17T01:19:30.676Z,101636.80
2023-04-17T01:21:03.289Z,101638.20
2023-04-17T01:22:35.098Z,101632.00
2023-04-17T01:24:07.261Z,101627.80
2023-04-17T01:25:39.038Z,101634.20
2023-04-17T01:27:13.682Z,101631.00
2023-04-17T01:28:56.155Z,101633.40
2023-04-17T01:30:27.963Z,101635.20
2023-04-17T01:32:11.554Z,101630.00
2023-04-17T01:33:43.310Z,101631.20
2023-04-17T01:35:15.012Z,101635.80
2023-04-17T01:36:46.726Z,101630.60
2023-04-17T01:38:18.416Z,101632.60
2023-04-17T01:39:50.235Z,101628.60
2023-04-17T01:41:21.869Z,101632.20
2023-04-17T01:42:53.813Z,101630.80
2023-04-17T01:44:25.573Z,101633.40
2023-04-17T01:45:57.449Z,101637.60
2023-04-17T01:47:29.180Z,101637.60
2023-04-17T01:49:00.854Z,101638.80
2023-04-17T01:50:32.692Z,101640.60
2023-04-17T01:52:04.366Z,101640.60
2023-04-17T01:53:37.917Z,101640.60
2023-04-17T01:55:10.113Z,101641.60
2023-04-17T01:56:42.434Z,101638.80
2023-04-17T01:58:14.172Z,101648.00
2023-04-17T01:59:46.043Z,101646.00
2023-04-17T02:01:17.798Z,101650.80
2023-04-17T02:02:49.568Z,101647.00
2023-04-17T02:04:21.428Z,101646.20
2023-04-17T02:05:53.901Z,101646.80
2023-04-17T02:07:25.619Z,101648.40
2023-04-17T02:08:57.462Z,101650.80
2023-04-17T02:10:29.156Z,101650.20
2023-04-17T02:12:00.953Z,101651.80
2023-04-17T02:13:32.704Z,101653.20
2023-04-17T02:15:05.065Z,101653.40
2023-04-17T02:16:37.756Z,101651.00
2023-04-17T02:18:09.972Z,101647.40
2023-04-17T02:19:41.736Z,101652.60
2023-04-17T02:21:13.553Z,101650.00
2023-04-17T02:22:45.322Z,101653.00
2023-04-17T02:24:17.055Z,101652.20
2023-04-17T02:25:48.846Z,101647.60
2023-04-17T02:27:20.574Z,101652.60
2023-04-17T02:28:52.226Z,101651.00
2023-04-17T02:30:26.209Z,101652.60
2023-04-17T02:31:59.364Z,101652.60
2023-04-17T02:33:31.117Z,101651.00
2023-04-17T02:35:03.343Z,101647.60
2023-04-17T02:36:36.381Z,101652.80
2023-04-17T02:38:08.377Z,101652.80
2023-04-17T02:39:40.145Z,101650.40
2023-04-17T02:41:11.939Z,101655.20
2023-04-17T02:42:44.134Z,101655.80
2023-04-17T02:44:15.838Z,101657.00
2023-04-17T02:45:48.270Z,101657.20
2023-04-17T02:47:20.159Z,101652.60
2023-04-17T02:48:51.807Z,101654.00
2023-04-17T02:50:25.684Z,101655.60
2023-04-17T02:52:10.813Z,101654.00
2023-04-17T02:53:42.582Z,101653.20
2023-04-17T02:55:14.373Z,101653.20
2023-04-17T02:56:46.870Z,101655.00
2023-04-17T02:58:18.799Z,101656.60
2023-04-17T02:59:51.479Z,101653.80
2023-04-17T03:01:23.495Z,101657.40
2023-04-17T03:02:55.782Z,101656.40
2023-04-17T03:04:30.238Z,101659.60
2023-04-17T03:06:02.060Z,101657.20
2023-04-17T03:07:34.240Z,101659.40
2023-04-17T03:09:05.914Z,101658.20
2023-04-17T03:10:37.609Z,101658.00
2023-04-17T03:12:09.290Z,101654.80
2023-04-17T03:13:41.320Z,101658.00
2023-04-17T03:15:13.069Z,101658.40
2023-04-17T03:16:44.818Z,101657.60
2023-04-17T03:18:16.637Z,101659.20
2023-04-17T03:19:48.494Z,101655.80
2023-04-17T03:21:20.886Z,101661.80
2023-04-17T03:22:54.255Z,101661.20
2023-04-17T03:24:25.956Z,101664.80
2023-04-17T03:25:58.653Z,101662.80
2023-04-17T03:27:30.870Z,101661.60
2023-04-17T03:29:02.984Z,101658.60
2023-04-17T03:30:34.688Z,101661.60
2023-04-17T03:32:09.442Z,101661.20
2023-04-17T03:33:41.418Z,101663.20
2023-04-17T03:35:13.127Z,101662.80
2023-04-17T03:36:46.528Z,101661.40
2023-04-17T03:38:18.436Z,101663.00
2023-04-17T03:39:50.127Z,101662.80
2023-04-17T03:41:21.879Z,101661.40
2023-04-17T03:42:53.964Z,101666.00
2023-04-17T03:44:25.748Z,101665.80
2023-04-17T03:45:57.467Z,101669.60
2023-04-17T03:47:30.376Z,101670.40
2023-04-17T03:49:02.250Z,101669.60
2023-04-17T03:50:34.363Z,101676.20
2023-04-17T03:52:06.180Z,101670.80
2023-04-17T03:53:38.347Z,101675.00
2023-04-17T03:55:12.788Z,101672.00
2023-04-17T03:56:45.661Z,101669.40
2023-04-17T03:58:17.576Z,101671.60
2023-04-17T03:59:49.266Z,101676.20
2023-04-17T04:01:22.329Z,101670.80
2023-04-17T04:03:20.282Z,101671.00
2023-04-17T04:04:53.870Z,101671.60
2023-04-17T04:06:29.618Z,101674.40
2023-04-17T04:08:01.943Z,101675.00
2023-04-17T04:09:38.812Z,101676.00
2023-04-17T04:11:10.602Z,101676.20
2023-04-17T04:12:43.269Z,101676.40
2023-04-17T04:14:14.976Z,101680.60
2023-04-17T04:15:47.694Z,101683.80
2023-04-17T04:17:19.755Z,101682.80
2023-04-17T04:18:51.527Z,101682.40
2023-04-17T04:20:23.414Z,101684.00
2023-04-17T04:21:58.560Z,101683.40
2023-04-17T04:23:38.122Z,101683.20
2023-04-17T04:25:10.284Z,101681.80
2023-04-17T04:26:51.530Z,101685.00
2023-04-17T04:28:24.009Z,101685.60
2023-04-17T04:29:58.808Z,101686.00
2023-04-17T04:31:31.092Z,101687.40
2023-04-17T04:33:05.914Z,101686.80
2023-04-17T04:34:37.882Z,101690.60
2023-04-17T04:36:09.765Z,101690.80
2023-04-17T04:37:42.953Z,101690.20
2023-04-17T04:39:17.848Z,101695.20
2023-04-17T04:40:50.031Z,101696.80
2023-04-17T04:42:22.391Z,101696.60
2023-04-17T04:44:20.696Z,101695.20
2023-04-17T04:45:53.189Z,101696.40
2023-04-17T04:47:25.070Z,101695.60
2023-04-17T04:48:58.018Z,101698.80
2023-04-17T04:50:29.906Z,101702.40
2023-04-17T04:52:02.312Z,101702.00
2023-04-17T04:53:36.755Z,101704.40
2023-04-17T04:55:09.426Z,101707.00
2023-04-17T04:56:45.007Z,101705.80
2023-04-17T04:58:17.608Z,101707.20
2023-04-17T04:59:49.699Z,101704.00
2023-04-17T05:01:32.778Z,101704.60
2023-04-17T05:03:05.013Z,101703.80
2023-04-17T05:04:37.297Z,101707.20
2023-04-17T05:06:09.465Z,101705.00
2023-04-17T05:07:45.334Z,101708.00
2023-04-17T05:11:44.803Z,101714.20
2023-04-17T05:13:16.883Z,101716.40
2023-04-17T05:14:48.721Z,101720.60
2023-04-17T05:16:21.973Z,101717.80
2023-04-17T05:17:54.267Z,101721.60
2023-04-17T05:19:26.552Z,101718.60
2023-04-17T05:21:05.773Z,101721.60
2023-04-17T05:22:38.684Z,101721.00
2023-04-17T05:24:15.382Z,101719.60
2023-04-17T05:25:49.503Z,101722.40
2023-04-17T05:27:21.370Z,101725.40
2023-04-17T05:28:59.255Z,101722.40
2023-04-17T05:30:33.917Z,101724.00
2023-04-17T05:32:15.409Z,101722.20
2023-04-17T05:33:57.554Z,101721.20
2023-04-17T05:35:30.119Z,101722.60
2023-04-17T05:37:02.821Z,101719.00
2023-04-17T05:38:34.535Z,101724.60
2023-04-17T05:40:12.007Z,101722.60
2023-04-17T05:41:43.924Z,101724.20
2023-04-17T05:43:16.002Z,101722.60
2023-04-17T05:44:47.812Z,101727.80
2023-04-17T05:46:19.812Z,101731.60
2023-04-17T05:47:53.007Z,101726.80
2023-04-17T05:49:28.754Z,101734.20
2023-04-17T05:51:00.717Z,101729.80
2023-04-17T05:52:33.125Z,101733.20
2023-04-17T05:54:05.480Z,101732.60
2023-04-17T05:55:37.672Z,101730.00
2023-04-17T05:57:11.434Z,101736.40
2023-04-17T05:58:43.253Z,101730.40
2023-04-17T06:00:15.686Z,101738.80
2023-04-17T06:01:49.987Z,101739.60
2023-04-17T06:03:25.962Z,101737.60
2023-04-17T06:05:08.139Z,101747.80
2023-04-17T06:06:40.390Z,101747.00
2023-04-17T06:08:12.393Z,101745.40
2023-04-17T06:09:44.185Z,101741.60
2023-04-17T06:11:17.510Z,101744.80
2023-04-17T06:12:49.607Z,101742.20
2023-04-17T06:14:21.459Z,101743.20
2023-04-17T06:15:53.708Z,101744.60
2023-04-17T06:17:25.557Z,101747.00
2023-04-17T06:18:59.773Z,101743.80
2023-04-17T06:20:33.001Z,101743.00
2023-04-17T06:22:07.490Z,101744.20
2023-04-17T06:23:39.974Z,101751.60
2023-04-17T06:25:13.497Z,101748.00
2023-04-17T06:26:45.447Z,101751.60
2023-04-17T06:28:17.303Z,101753.20
2023-04-17T06:29:49.233Z,101757.20
2023-04-17T06:31:21.347Z,101758.60
2023-04-17T06:32:53.871Z,101757.80
2023-04-17T06:34:25.933Z,101760.60
2023-04-17T06:35:57.933Z,101762.80
2023-04-17T06:37:44.995Z,101767.40
2023-04-17T06:39:17.719Z,101764.00
2023-04-17T06:40:52.790Z,101765.80
2023-04-17T06:42:24.947Z,101767.80
2023-04-17T06:44:04.022Z,101769.80
2023-04-17T06:45:49.533Z,101772.40
2023-04-17T06:47:21.934Z,101770.00
2023-04-17T06:48:57.885Z,101769.20
2023-04-17T06:50:29.768Z,101772.40
2023-04-17T06:52:01.677Z,101778.00
2023-04-17T06:53:33.589Z,101776.20
2023-04-17T06:55:06.092Z,101781.20
2023-04-17T06:56:38.008Z,101780.80
2023-04-17T06:58:09.780Z,101781.20
2023-04-17T06:59:41.514Z,101780.80
2023-04-17T07:01:14.891Z,101783.60
2023-04-17T07:02:46.870Z,101786.00
2023-04-17T07:04:20.865Z,101783.80
2023-04-17T07:05:52.798Z,101783.20
2023-04-17T07:07:25.977Z,101785.20
2023-04-17T07:08:57.784Z,101783.40
2023-04-17T07:10:29.864Z,101783.00
2023-04-17T07:12:03.837Z,101781.20
2023-04-17T07:13:35.805Z,101785.20
2023-04-17T07:15:08.938Z,101786.00
2023-04-17T07:16:40.849Z,101787.60
2023-04-17T07:18:12.806Z,101790.80
2023-04-17T07:19:44.585Z,101792.40
2023-04-17T07:21:16.539Z,101794.80
2023-04-17T07:22:49.886Z,101794.40
2023-04-17T07:24:22.042Z,101797.40
2023-04-17T07:25:56.178Z,101793.20
2023-04-17T07:27:28.104Z,101797.20
2023-04-17T07:28:59.957Z,101800.60
2023-04-17T07:30:31.781Z,101803.20
2023-04-17T07:32:04.527Z,101801.20
2023-04-17T07:33:40.059Z,101809.60
2023-04-17T07:35:12.392Z,101812.00
2023-04-17T07:36:44.217Z,101814.20
2023-04-17T07:38:16.038Z,101810.80
2023-04-17T07:39:51.451Z,101809.80
2023-04-17T07:41:23.606Z,101810.20
2023-04-17T07:42:56.686Z,101816.40
2023-04-17T07:44:28.487Z,101815.20
2023-04-17T07:46:00.308Z,101815.40
2023-04-17T07:47:32.220Z,101817.00
2023-04-17T07:49:04.188Z,101819.20
2023-04-17T07:50:36.006Z,101821.60
2023-04-17T07:52:07.838Z,101816.00
2023-04-17T07:53:39.655Z,101818.00
2023-04-17T07:55:11.447Z,101814.80
2023-04-17T07:56:49.217Z,101811.80
2023-04-17T07:58:22.513Z,101809.60
2023-04-17T07:59:54.324Z,101814.80
2023-04-17T08:01:26.533Z,101812.60
2023-04-17T08:02:58.647Z,101813.60
2023-04-17T08:04:31.273Z,101814.60
2023-04-17T08:06:03.197Z,101815.20
2023-04-17T08:07:36.636Z,101824.60
2023-04-17T08:09:09.766Z,101823.60
2023-04-17T08:10:41.848Z,101819.60
2023-04-17T08:12:14.016Z,101826.20
2023-04-17T08:13:45.883Z,101825.00
2023-04-17T08:15:17.690Z,101825.00
2023-04-17T08:16:50.519Z,101828.00
2023-04-17T08:18:23.817Z,101830.80
2023-04-17T08:19:57.706Z,101827.40
2023-04-17T08:21:29.582Z,101828.00
2023-04-17T08:23:01.682Z,101832.80
2023-04-17T08:24:33.413Z,101826.60
2023-04-17T08:26:05.422Z,101829.00
2023-04-17T08:27:48.318Z,101825.20
2023-04-17T08:29:20.062Z,101826.40
2023-04-17T08:30:52.740Z,101827.20
2023-04-17T08:32:24.626Z,101827.40
2023-04-17T08:34:10.485Z,101825.80
2023-04-17T08:35:42.643Z,101825.20
2023-04-17T08:37:14.311Z,101831.00
2023-04-17T08:38:47.730Z,101835.00
2023-04-17T08:40:23.437Z,101833.20
2023-04-17T08:42:02.990Z,101832.60
2023-04-17T08:43:36.458Z,101830.20
2023-04-17T08:45:11.994Z,101829.80
2023-04-17T08:46:45.446Z,101830.20
2023-04-17T08:48:17.309Z,101833.80
2023-04-17T08:49:50.732Z,101840.80
2023-04-17T08:51:27.934Z,101833.60
2023-04-17T08:52:59.827Z,101831.00
2023-04-17T08:54:35.284Z,101832.40
2023-04-17T08:56:09.223Z,101835.40
2023-04-17T08:57:58.953Z,101832.40
2023-04-17T08:59:34.232Z,101831.00
2023-04-17T09:01:16.687Z,101832.60
2023-04-17T09:02:56.293Z,101836.20
2023-04-17T09:04:47.138Z,101835.20
2023-04-17T09:06:19.210Z,101834.60
2023-04-17T09:08:06.032Z,101833.40
2023-04-17T09:09:55.893Z,101844.60
2023-04-17T09:11:28.592Z,101842.00
2023-04-17T09:13:01.315Z,101839.20
2023-04-17T09:14:33.168Z,101839.60
2023-04-17T09:16:06.225Z,101844.60
2023-04-17T09:17:38.399Z,101842.20
2023-04-17T09:19:11.231Z,101846.20
2023-04-17T09:20:50.583Z,101843.20
2023-04-17T09:22:23.372Z,101843.00
2023-04-17T09:23:59.437Z,101849.60
2023-04-17T09:25:33.014Z,101849.80
2023-04-17T09:27:25.658Z,101849.20
2023-04-17T09:29:15.683Z,101851.40
2023-04-17T09:30:47.823Z,101845.80
2023-04-17T09:32:19.636Z,101844.20
2023-04-17T09:33:57.153Z,101843.80
2023-04-17T09:35:29.169Z,101849.80
2023-04-17T09:37:00.914Z,101851.40
2023-04-17T09:38:39.934Z,101849.80
2023-04-17T09:40:12.111Z,101846.60
2023-04-17T09:41:44.121Z,101843.20
2023-04-17T09:43:15.993Z,101842.60
2023-04-17T09:44:48.420Z,101842.80
2023-04-17T09:46:47.828Z,101844.60
2023-04-17T09:48:21.625Z,101845.20
2023-04-17T09:49:53.774Z,101848.20
2023-04-17T09:51:26.950Z,101853.20
2023-04-17T09:52:58.865Z,101843.40
2023-04-17T09:54:31.611Z,101847.60
2023-04-17T09:56:06.299Z,101846.20
2023-04-17T09:57:39.244Z,101846.40
2023-04-17T09:59:11.055Z,101844.00
2023-04-17T10:00:43.071Z,101852.20
2023-04-17T10:02:18.637Z,101846.40
2023-04-17T10:03:51.129Z,101839.60
2023-04-17T10:05:32.715Z,101843.60
2023-04-17T10:07:04.757Z,101843.20
2023-04-17T10:08:37.054Z,101846.20
2023-04-17T10:10:11.214Z,101841.60
2023-04-17T10:11:47.323Z,101848.40
2023-04-17T10:13:21.362Z,101855.40
2023-04-17T10:14:53.468Z,101846.60
2023-04-17T10:16:39.678Z,101852.00
2023-04-17T10:18:25.003Z,101846.80
2023-04-17T10:20:23.693Z,101848.00
2023-04-17T10:22:14.295Z,101845.40
2023-04-17T10:23:46.560Z,101840.80
2023-04-17T10:25:22.496Z,101845.00
2023-04-17T10:26:54.689Z,101846.20
2023-04-17T10:28:49.333Z,101845.80
2023-04-17T10:30:23.152Z,101848.80
2023-04-17T10:32:11.404Z,101839.60
2023-04-17T10:33:54.365Z,101839.80
2023-04-17T10:35:26.217Z,101832.40
2023-04-17T10:36:57.918Z,101829.00
2023-04-17T10:38:35.960Z,101835.40
2023-04-17T10:40:10.554Z,101833.60
2023-04-17T10:42:05.740Z,101833.80
2023-04-17T10:43:41.801Z,101831.60
2023-04-17T10:45:19.671Z,101836.00
2023-04-17T10:46:51.431Z,101833.00
2023-04-17T10:48:35.081Z,101838.40
2023-04-17T10:50:10.163Z,101838.40
2023-04-17T10:51:43.157Z,101841.40
2023-04-17T10:53:41.435Z,101837.60
2023-04-17T10:55:22.767Z,101834.60
2023-04-17T10:56:55.874Z,101831.20
2023-04-17T10:58:31.482Z,101825.60
2023-04-17T11:00:15.759Z,101826.80
2023-04-17T11:01:47.442Z,101822.00
2023-04-17T11:03:24.141Z,101824.20
2023-04-17T11:05:07.778Z,101822.80
2023-04-17T11:06:40.573Z,101823.80
2023-04-17T11:08:13.399Z,101823.60
2023-04-17T11:09:52.640Z,101823.60
2023-04-17T11:11:35.257Z,101816.80
2023-04-17T11:13:16.633Z,101826.80
2023-04-17T11:14:49.407Z,101826.00
2023-04-17T11:16:22.389Z,101819.00
2023-04-17T11:17:56.322Z,101823.20
2023-04-17T11:19:28.397Z,101823.20
2023-04-17T11:21:00.230Z,101818.40
2023-04-17T11:22:34.225Z,101822.00
2023-04-17T11:24:06.649Z,101818.00
2023-04-17T11:25:40.464Z,101819.00
2023-04-17T11:27:12.357Z,101820.60
2023-04-17T11:28:44.310Z,101818.20
2023-04-17T11:30:29.727Z,101819.20
2023-04-17T11:32:02.659Z,101821.40
2023-04-17T11:33:37.553Z,101819.60
2023-04-17T11:35:11.242Z,101811.60
2023-04-17T11:36:52.102Z,101813.80
2023-04-17T11:38:24.074Z,101819.40
2023-04-17T11:40:08.157Z,101822.40
2023-04-17T11:41:42.776Z,101825.20
2023-04-17T11:43:15.123Z,101826.40
2023-04-17T11:44:47.538Z,101823.40
2023-04-17T11:46:19.439Z,101828.40
2023-04-17T11:47:52.622Z,101826.80
2023-04-17T11:49:38.306Z,101827.20
2023-04-17T11:51:10.384Z,101833.20
2023-04-17T11:52:43.401Z,101843.00
2023-04-17T11:54:34.732Z,101837.20
2023-04-17T11:56:18.659Z,101839.00
2023-04-17T11:57:55.480Z,101841.80
2023-04-17T11:59:39.685Z,101840.20
2023-04-17T12:01:13.550Z,101836.40
2023-04-17T12:02:45.458Z,101836.40
2023-04-17T12:04:21.791Z,101834.40
2023-04-17T12:06:06.681Z,101834.40
2023-04-17T12:07:38.396Z,101828.80
2023-04-17T12:09:25.238Z,101832.60
2023-04-17T12:10:58.156Z,101833.80
2023-04-17T12:12:31.181Z,101825.40
2023-04-17T12:14:12.468Z,101828.00
2023-04-17T12:15:46.721Z,101828.00
2023-04-17T12:17:18.952Z,101828.60
2023-04-17T12:18:51.941Z,101833.80
2023-04-17T12:20:26.574Z,101831.00
2023-04-17T12:22:02.210Z,101832.00
2023-04-17T12:23:34.045Z,101831.00
2023-04-17T12:25:06.460Z,101831.40
2023-04-17T12:26:47.596Z,101833.80
2023-04-17T12:28:19.324Z,101830.20
2023-04-17T12:29:51.155Z,101830.60
2023-04-17T12:31:22.999Z,101829.60
2023-04-17T12:32:56.722Z,101824.60
2023-04-17T12:34:29.714Z,101825.20
2023-04-17T12:36:04.809Z,101822.00
2023-04-17T12:37:36.738Z,101823.40
2023-04-17T12:39:08.572Z,101825.80
2023-04-17T12:40:43.293Z,101824.60
2023-04-17T12:42:15.018Z,101833.80
2023-04-17T12:43:47.238Z,101827.40
2023-04-17T12:45:19.976Z,101826.20
2023-04-17T12:46:51.860Z,101819.60
2023-04-17T12:48:23.652Z,101822.80
2023-04-17T12:49:55.641Z,101826.80
2023-04-17T12:51:32.386Z,101824.20
2023-04-17T12:53:04.051Z,101817.40
2023-04-17T12:54:36.079Z,101819.80
2023-04-17T12:56:09.397Z,101821.40
2023-04-17T12:57:41.646Z,101817.00
2023-04-17T12:59:13.468Z,101813.40
2023-04-17T13:00:45.438Z,101809.60
2023-04-17T13:02:18.972Z,101814.40
2023-04-17T13:03:52.835Z,101819.40
2023-04-17T13:05:28.412Z,101814.20
2023-04-17T13:07:00.823Z,101815.40
2023-04-17T13:08:33.329Z,101809.60
2023-04-17T13:10:05.998Z,101806.60
2023-04-17T13:11:37.727Z,101809.20
2023-04-17T13:13:10.517Z,101812.80
2023-04-17T13:14:42.520Z,101812.60
2023-04-17T13:16:14.414Z,101814.60
2023-04-17T13:17:46.614Z,101816.00
2023-04-17T13:19:18.506Z,101803.60
2023-04-17T13:20:50.174Z,101801.80
2023-04-17T13:22:22.601Z,101807.20
2023-04-17T13:23:54.352Z,101802.40
2023-04-17T13:25:26.248Z,101803.40
2023-04-17T13:26:58.322Z,101804.80
2023-04-17T13:28:30.339Z,101804.20
2023-04-17T13:30:02.294Z,101806.60
2023-04-17T13:31:34.770Z,101810.00
2023-04-17T13:33:09.134Z,101809.20
2023-04-17T13:34:43.046Z,101808.00
2023-04-17T13:36:14.878Z,101803.80
2023-04-17T13:37:46.637Z,101804.60
2023-04-17T13:39:18.436Z,101802.00
2023-04-17T13:40:50.317Z,101795.60
2023-04-17T13:42:22.144Z,101795.80
2023-04-17T13:43:55.333Z,101793.60
2023-04-17T13:45:27.326Z,101793.40
2023-04-17T13:46:59.597Z,101797.80
2023-04-17T13:48:31.351Z,101792.60
2023-04-17T13:50:03.411Z,101793.80
2023-04-17T13:51:35.238Z,101790.60
2023-04-17T13:53:11.328Z,101787.40
2023-04-17T13:54:43.149Z,101793.20
2023-04-17T13:56:16.181Z,101788.20
2023-04-17T13:57:48.032Z,101786.60
2023-04-17T13:59:20.264Z,101788.80
2023-04-17T14:00:52.120Z,101786.60
2023-04-17T14:02:24.084Z,101783.40
2023-04-17T14:03:56.278Z,101789.80
2023-04-17T14:05:28.342Z,101779.60
2023-04-17T14:07:01.531Z,101782.00
2023-04-17T14:08:33.527Z,101792.00
2023-04-17T14:10:07.626Z,101790.80
2023-04-17T14:11:39.481Z,101792.00
2023-04-17T14:13:11.296Z,101794.00
2023-04-17T14:14:43.201Z,101792.00
2023-04-17T14:16:15.063Z,101780.60
2023-04-17T14:17:47.047Z,101785.40
2023-04-17T14:19:19.538Z,101778.20
2023-04-17T14:20:55.435Z,101774.80
2023-04-17T14:22:27.206Z,101783.00
2023-04-17T14:24:00.671Z,101778.00
2023-04-17T14:25:32.490Z,101769.00
2023-04-17T14:27:05.539Z,101778.80
2023-04-17T14:28:38.154Z,101780.80
2023-04-17T14:30:10.279Z,101780.60
2023-04-17T14:31:42.183Z,101785.40
2023-04-17T14:33:13.975Z,101782.80
2023-04-17T14:34:46.130Z,101784.80
2023-04-17T14:36:17.905Z,101783.40
2023-04-17T14:37:49.646Z,101767.80
2023-04-17T14:39:21.534Z,101760.80
2023-04-17T14:40:53.624Z,101765.80
2023-04-17T14:42:25.422Z,101760.40
2023-04-17T14:43:57.142Z,101754.00
2023-04-17T14:45:29.285Z,101764.60
2023-04-17T14:47:01.007Z,101770.80
2023-04-17T14:48:36.170Z,101777.40
2023-04-17T14:50:13.601Z,101776.80
2023-04-17T14:51:45.329Z,101775.60
2023-04-17T14:53:18.856Z,101779.80
2023-04-17T14:54:51.863Z,101764.40
2023-04-17T14:56:23.804Z,101760.80
2023-04-17T14:57:55.648Z,101774.00
2023-04-17T14:59:28.479Z,101773.20
2023-04-17T15:01:00.305Z,101755.80
2023-04-17T15:02:38.592Z,101756.40
2023-04-17T15:04:11.040Z,101754.80
2023-04-17T15:05:43.065Z,101751.80
2023-04-17T15:07:15.668Z,101746.60
2023-04-17T15:08:48.429Z,101751.80
2023-04-17T15:10:20.313Z,101751.00
2023-04-17T15:11:52.117Z,101762.20
2023-04-17T15:13:23.845Z,101772.60
2023-04-17T15:14:56.483Z,101771.60
2023-04-17T15:16:28.768Z,101746.60
2023-04-17T15:18:00.657Z,101746.80
2023-04-17T15:19:34.229Z,101744.40
2023-04-17T15:21:06.760Z,101752.60
2023-04-17T15:22:38.585Z,101745.60
2023-04-17T15:24:10.292Z,101741.40
2023-04-17T15:25:42.103Z,101744.80
2023-04-17T15:27:13.924Z,101745.60
2023-04-17T15:28:45.806Z,101741.40
2023-04-17T15:30:17.780Z,101742.80
2023-04-17T15:31:49.554Z,101751.80
2023-04-17T15:33:21.343Z,101742.20
2023-04-17T15:34:53.186Z,101742.00
2023-04-17T15:36:33.800Z,101736.40
2023-04-17T15:38:07.522Z,101735.60
2023-04-17T15:39:39.855Z,101742.80
2023-04-17T15:41:14.026Z,101753.20
2023-04-17T15:42:45.840Z,101751.60
2023-04-17T15:44:17.976Z,101735.60
2023-04-17T15:45:50.135Z,101751.80
2023-04-17T15:47:22.205Z,101739.40
2023-04-17T15:49:07.442Z,101736.60
2023-04-17T15:50:39.939Z,101734.00
2023-04-17T15:52:11.766Z,101737.60
2023-04-17T15:53:43.462Z,101734.00
2023-04-17T15:55:15.894Z,101727.80
2023-04-17T15:56:47.804Z,101731.20
2023-04-17T15:58:19.815Z,101730.40
2023-04-17T15:59:51.644Z,101731.20
2023-04-17T16:01:23.429Z,101732.80
2023-04-17T16:02:55.339Z,101730.00
2023-04-17T16:04:27.394Z,101732.00
2023-04-17T16:05:59.240Z,101728.00
2023-04-17T16:07:32.445Z,101726.80
2023-04-17T16:09:04.508Z,101730.40
2023-04-17T16:10:36.883Z,101733.40
2023-04-17T16:12:10.731Z,101729.20
2023-04-17T16:13:42.583Z,101738.60
2023-04-17T16:15:17.189Z,101736.40
2023-04-17T16:16:48.910Z,101737.20
2023-04-17T16:18:20.779Z,101737.00
2023-04-17T16:19:52.577Z,101731.80
2023-04-17T16:21:24.357Z,101730.20
2023-04-17T16:22:56.282Z,101729.40
2023-04-17T16:24:28.219Z,101743.40
2023-04-17T16:25:59.884Z,101728.20
2023-04-17T16:27:32.679Z,101737.80
2023-04-17T16:29:04.721Z,101726.40
2023-04-17T16:30:36.447Z,101718.80
2023-04-17T16:32:08.395Z,101722.20
2023-04-17T16:33:40.788Z,101724.60
2023-04-17T16:35:13.601Z,101736.00
2023-04-17T16:36:46.224Z,101735.20
2023-04-17T16:38:18.151Z,101733.80
2023-04-17T16:39:51.490Z,101731.20
2023-04-17T16:41:23.514Z,101728.60
2023-04-17T16:42:55.323Z,101721.60
2023-04-17T16:44:28.125Z,101720.20
2023-04-17T16:46:03.267Z,101715.40
2023-04-17T16:47:40.149Z,101715.40
2023-04-17T16:49:14.133Z,101716.60
2023-04-17T16:50:46.332Z,101715.40
2023-04-17T16:52:17.999Z,101717.80
2023-04-17T16:53:50.714Z,101720.00
2023-04-17T16:55:23.329Z,101719.60
2023-04-17T16:56:55.872Z,101726.40
2023-04-17T16:58:27.688Z,101725.00
2023-04-17T16:59:59.456Z,101723.40
2023-04-17T17:01:33.927Z,101723.40
2023-04-17T17:03:06.262Z,101730.20
2023-04-17T17:04:38.424Z,101729.60
2023-04-17T17:06:10.630Z,101729.80
2023-04-17T17:07:42.478Z,101731.00
2023-04-17T17:09:14.411Z,101728.00
2023-04-17T17:10:50.397Z,101731.20
2023-04-17T17:12:22.281Z,101730.80
2023-04-17T17:13:54.090Z,101734.40
2023-04-17T17:15:26.251Z,101729.40
2023-04-17T17:16:58.305Z,101731.60
2023-04-17T17:18:30.852Z,101729.60
2023-04-17T17:20:02.747Z,101738.60
2023-04-17T17:21:36.192Z,101739.60
2023-04-17T17:23:07.990Z,101742.00
2023-04-17T17:24:39.918Z,101739.80
2023-04-17T17:26:11.833Z,101740.00
2023-04-17T17:27:43.523Z,101740.80
2023-04-17T17:29:15.547Z,101739.40
2023-04-17T17:30:48.529Z,101737.00
2023-04-17T17:32:20.478Z,101738.00
2023-04-17T17:33:54.533Z,101742.20
2023-04-17T17:35:26.406Z,101741.40
2023-04-17T17:36:58.730Z,101745.00
2023-04-17T17:38:32.671Z,101743.20
2023-04-17T17:40:05.750Z,101738.20
2023-04-17T17:41:37.762Z,101737.60
2023-04-17T17:43:12.574Z,101737.20
2023-04-17T17:44:44.889Z,101736.60
2023-04-17T17:46:16.829Z,101741.80
2023-04-17T17:47:51.724Z,101741.40
2023-04-17T17:49:23.503Z,101740.80
2023-04-17T17:50:55.981Z,101742.00
2023-04-17T17:52:27.786Z,101736.80